sensor_id;sensor_type;location;lat;lon;timestamp;P1;durP1;ratioP1;P2;durP2;ratioP2
27424;SDS011;15244;49.088;11.886;2023-01-09T00:01:59;24.25;;;13.48;;
27424;SDS011;15244;49.088;11.886;2023-01-09T00:07:02;20.17;;;13.35;;
27424;SDS011;15244;49.088;11.886;2023-01-09T00:12:05;18.52;;;13.60;;
27424;SDS011;15244;49.088;11.886;2023-01-09T00:17:06;18.48;;;12.52;;
27424;SDS011;15244;49.088;11.886;2023-01-09T00:22:08;18.92;;;12.90;;
27424;SDS011;15244;49.088;11.886;2023-01-09T00:27:10;17.50;;;12.88;;
27424;SDS011;15244;49.088;11.886;2023-01-09T00:32:12;18.85;;;12.02;;
27424;SDS011;15244;49.088;11.886;2023-01-09T00:37:14;16.65;;;13.20;;
27424;SDS011;15244;49.088;11.886;2023-01-09T00:42:23;20.92;;;13.65;;
27424;SDS011;15244;49.088;11.886;2023-01-09T00:47:28;19.85;;;13.63;;
27424;SDS011;15244;49.088;11.886;2023-01-09T00:52:34;18.30;;;13.18;;
27424;SDS011;15244;49.088;11.886;2023-01-09T00:57:38;16.27;;;11.88;;
27424;SDS011;15244;49.088;11.886;2023-01-09T01:02:40;17.95;;;13.45;;
27424;SDS011;15244;49.088;11.886;2023-01-09T01:07:43;22.92;;;17.08;;
27424;SDS011;15244;49.088;11.886;2023-01-09T01:12:45;17.35;;;13.23;;
27424;SDS011;15244;49.088;11.886;2023-01-09T01:17:48;18.70;;;13.73;;
27424;SDS011;15244;49.088;11.886;2023-01-09T01:22:51;22.67;;;15.48;;
27424;SDS011;15244;49.088;11.886;2023-01-09T01:27:53;45.17;;;23.50;;
27424;SDS011;15244;49.088;11.886;2023-01-09T01:32:55;27.33;;;17.52;;
27424;SDS011;15244;49.088;11.886;2023-01-09T01:37:57;31.23;;;20.80;;
27424;SDS011;15244;49.088;11.886;2023-01-09T01:42:59;21.13;;;15.43;;
27424;SDS011;15244;49.088;11.886;2023-01-09T01:48:08;20.50;;;14.05;;
27424;SDS011;15244;49.088;11.886;2023-01-09T01:58:19;18.88;;;13.30;;
27424;SDS011;15244;49.088;11.886;2023-01-09T02:03:22;18.35;;;13.13;;
27424;SDS011;15244;49.088;11.886;2023-01-09T02:08:26;16.63;;;12.60;;
27424;SDS011;15244;49.088;11.886;2023-01-09T02:13:28;18.00;;;12.68;;
27424;SDS011;15244;49.088;11.886;2023-01-09T02:18:34;17.75;;;12.00;;
27424;SDS011;15244;49.088;11.886;2023-01-09T02:35:26;16.20;;;12.50;;
27424;SDS011;15244;49.088;11.886;2023-01-09T02:45:33;15.13;;;11.57;;
27424;SDS011;15244;49.088;11.886;2023-01-09T02:50:38;17.60;;;12.77;;
27424;SDS011;15244;49.088;11.886;2023-01-09T02:55:51;16.70;;;12.10;;
27424;SDS011;15244;49.088;11.886;2023-01-09T03:01:11;18.55;;;13.45;;
27424;SDS011;15244;49.088;11.886;2023-01-09T03:06:29;19.95;;;13.32;;
27424;SDS011;15244;49.088;11.886;2023-01-09T03:11:41;19.45;;;13.55;;
27424;SDS011;15244;49.088;11.886;2023-01-09T03:21:53;15.88;;;12.07;;
27424;SDS011;15244;49.088;11.886;2023-01-09T03:26:56;17.98;;;12.40;;
27424;SDS011;15244;49.088;11.886;2023-01-09T03:31:58;18.52;;;11.95;;
27424;SDS011;15244;49.088;11.886;2023-01-09T03:37:00;16.77;;;12.52;;
27424;SDS011;15244;49.088;11.886;2023-01-09T03:42:03;15.07;;;11.82;;
27424;SDS011;15244;49.088;11.886;2023-01-09T03:47:05;16.27;;;12.75;;
27424;SDS011;15244;49.088;11.886;2023-01-09T03:52:07;17.58;;;13.45;;
27424;SDS011;15244;49.088;11.886;2023-01-09T03:57:08;16.95;;;12.25;;
27424;SDS011;15244;49.088;11.886;2023-01-09T04:02:10;16.55;;;12.55;;
27424;SDS011;15244;49.088;11.886;2023-01-09T04:07:12;15.68;;;12.30;;
27424;SDS011;15244;49.088;11.886;2023-01-09T04:12:15;22.98;;;12.57;;
27424;SDS011;15244;49.088;11.886;2023-01-09T04:17:17;18.98;;;12.93;;
27424;SDS011;15244;49.088;11.886;2023-01-09T04:22:18;16.08;;;12.65;;
27424;SDS011;15244;49.088;11.886;2023-01-09T04:27:20;75.45;;;33.55;;
27424;SDS011;15244;49.088;11.886;2023-01-09T04:32:22;73.28;;;32.03;;
27424;SDS011;15244;49.088;11.886;2023-01-09T04:37:24;43.00;;;23.33;;
27424;SDS011;15244;49.088;11.886;2023-01-09T04:42:25;73.82;;;34.72;;
27424;SDS011;15244;49.088;11.886;2023-01-09T04:47:27;63.50;;;31.90;;
27424;SDS011;15244;49.088;11.886;2023-01-09T04:52:31;22.58;;;16.17;;
27424;SDS011;15244;49.088;11.886;2023-01-09T04:57:34;29.35;;;19.60;;
27424;SDS011;15244;49.088;11.886;2023-01-09T05:02:36;36.78;;;23.25;;
27424;SDS011;15244;49.088;11.886;2023-01-09T05:07:38;21.02;;;14.93;;
27424;SDS011;15244;49.088;11.886;2023-01-09T05:12:40;20.48;;;14.13;;
27424;SDS011;15244;49.088;11.886;2023-01-09T05:17:42;19.17;;;14.23;;
27424;SDS011;15244;49.088;11.886;2023-01-09T05:22:43;18.45;;;14.05;;
27424;SDS011;15244;49.088;11.886;2023-01-09T05:27:45;16.88;;;13.63;;
27424;SDS011;15244;49.088;11.886;2023-01-09T05:32:47;16.92;;;13.13;;
27424;SDS011;15244;49.088;11.886;2023-01-09T05:37:48;23.77;;;17.42;;
27424;SDS011;15244;49.088;11.886;2023-01-09T05:42:50;17.30;;;13.13;;
27424;SDS011;15244;49.088;11.886;2023-01-09T05:47:52;16.45;;;13.13;;
27424;SDS011;15244;49.088;11.886;2023-01-09T05:52:54;14.27;;;11.85;;
27424;SDS011;15244;49.088;11.886;2023-01-09T05:57:55;14.65;;;12.07;;
27424;SDS011;15244;49.088;11.886;2023-01-09T06:02:58;13.95;;;11.25;;
27424;SDS011;15244;49.088;11.886;2023-01-09T06:08:01;14.20;;;11.80;;
27424;SDS011;15244;49.088;11.886;2023-01-09T06:13:03;14.25;;;11.43;;
27424;SDS011;15244;49.088;11.886;2023-01-09T06:18:06;11.93;;;10.73;;
27424;SDS011;15244;49.088;11.886;2023-01-09T06:23:08;14.32;;;11.02;;
27424;SDS011;15244;49.088;11.886;2023-01-09T06:28:11;12.77;;;10.70;;
27424;SDS011;15244;49.088;11.886;2023-01-09T06:33:12;11.40;;;9.93;;
27424;SDS011;15244;49.088;11.886;2023-01-09T06:38:14;11.05;;;9.95;;
27424;SDS011;15244;49.088;11.886;2023-01-09T06:43:16;15.90;;;11.75;;
27424;SDS011;15244;49.088;11.886;2023-01-09T06:48:18;14.15;;;11.13;;
27424;SDS011;15244;49.088;11.886;2023-01-09T06:53:19;12.65;;;10.18;;
27424;SDS011;15244;49.088;11.886;2023-01-09T06:58:21;22.85;;;16.15;;
27424;SDS011;15244;49.088;11.886;2023-01-09T07:03:23;10.88;;;9.77;;
27424;SDS011;15244;49.088;11.886;2023-01-09T07:08:25;12.68;;;9.98;;
27424;SDS011;15244;49.088;11.886;2023-01-09T07:13:27;10.80;;;9.73;;
27424;SDS011;15244;49.088;11.886;2023-01-09T07:18:29;11.52;;;9.18;;
27424;SDS011;15244;49.088;11.886;2023-01-09T07:23:32;8.85;;;7.95;;
27424;SDS011;15244;49.088;11.886;2023-01-09T07:28:34;8.15;;;7.38;;
27424;SDS011;15244;49.088;11.886;2023-01-09T07:33:36;7.18;;;6.50;;
27424;SDS011;15244;49.088;11.886;2023-01-09T07:38:38;5.47;;;5.07;;
27424;SDS011;15244;49.088;11.886;2023-01-09T07:43:40;5.28;;;4.80;;
27424;SDS011;15244;49.088;11.886;2023-01-09T07:48:42;3.53;;;2.90;;
27424;SDS011;15244;49.088;11.886;2023-01-09T07:53:43;3.50;;;3.20;;
27424;SDS011;15244;49.088;11.886;2023-01-09T07:58:45;3.83;;;2.22;;
27424;SDS011;15244;49.088;11.886;2023-01-09T08:03:47;1.10;;;1.10;;
27424;SDS011;15244;49.088;11.886;2023-01-09T08:08:49;0.98;;;0.65;;
27424;SDS011;15244;49.088;11.886;2023-01-09T08:13:52;0.60;;;0.57;;
27424;SDS011;15244;49.088;11.886;2023-01-09T08:18:54;1.17;;;0.40;;
27424;SDS011;15244;49.088;11.886;2023-01-09T08:23:56;1.15;;;0.40;;
27424;SDS011;15244;49.088;11.886;2023-01-09T08:28:58;0.90;;;0.50;;
27424;SDS011;15244;49.088;11.886;2023-01-09T08:34:00;0.73;;;0.40;;
27424;SDS011;15244;49.088;11.886;2023-01-09T08:39:01;2.42;;;0.50;;
27424;SDS011;15244;49.088;11.886;2023-01-09T08:44:03;0.17;;;0.17;;
27424;SDS011;15244;49.088;11.886;2023-01-09T08:49:24;1.67;;;0.50;;
27424;SDS011;15244;49.088;11.886;2023-01-09T08:54:26;1.33;;;0.75;;
27424;SDS011;15244;49.088;11.886;2023-01-09T08:59:28;1.25;;;0.47;;
27424;SDS011;15244;49.088;11.886;2023-01-09T09:04:30;2.17;;;0.40;;
27424;SDS011;15244;49.088;11.886;2023-01-09T09:09:32;0.68;;;0.30;;
27424;SDS011;15244;49.088;11.886;2023-01-09T09:14:33;0.50;;;0.50;;
27424;SDS011;15244;49.088;11.886;2023-01-09T09:19:54;0.98;;;0.50;;
27424;SDS011;15244;49.088;11.886;2023-01-09T09:24:55;2.83;;;0.90;;
27424;SDS011;15244;49.088;11.886;2023-01-09T09:29:57;3.08;;;0.60;;
27424;SDS011;15244;49.088;11.886;2023-01-09T09:34:59;2.95;;;0.57;;
27424;SDS011;15244;49.088;11.886;2023-01-09T09:40:01;2.05;;;0.90;;
27424;SDS011;15244;49.088;11.886;2023-01-09T09:45:30;1.63;;;0.85;;
27424;SDS011;15244;49.088;11.886;2023-01-09T09:56:11;2.75;;;0.80;;
27424;SDS011;15244;49.088;11.886;2023-01-09T10:02:20;2.13;;;0.80;;
27424;SDS011;15244;49.088;11.886;2023-01-09T10:06:55;1.20;;;0.70;;
27424;SDS011;15244;49.088;11.886;2023-01-09T10:17:20;2.25;;;0.60;;
27424;SDS011;15244;49.088;11.886;2023-01-09T10:22:28;1.35;;;0.52;;
27424;SDS011;15244;49.088;11.886;2023-01-09T10:38:34;2.17;;;0.68;;
27424;SDS011;15244;49.088;11.886;2023-01-09T10:43:44;2.03;;;0.65;;
27424;SDS011;15244;49.088;11.886;2023-01-09T10:48:57;2.92;;;0.57;;
27424;SDS011;15244;49.088;11.886;2023-01-09T10:54:01;1.92;;;0.52;;
27424;SDS011;15244;49.088;11.886;2023-01-09T10:59:06;2.72;;;0.98;;
27424;SDS011;15244;49.088;11.886;2023-01-09T11:04:22;2.58;;;0.75;;
27424;SDS011;15244;49.088;11.886;2023-01-09T11:09:27;2.33;;;1.10;;
27424;SDS011;15244;49.088;11.886;2023-01-09T11:14:29;3.28;;;0.93;;
27424;SDS011;15244;49.088;11.886;2023-01-09T11:19:34;2.40;;;1.30;;
27424;SDS011;15244;49.088;11.886;2023-01-09T11:24:35;4.22;;;1.17;;
27424;SDS011;15244;49.088;11.886;2023-01-09T11:29:38;2.65;;;0.63;;
27424;SDS011;15244;49.088;11.886;2023-01-09T11:34:43;2.55;;;1.35;;
27424;SDS011;15244;49.088;11.886;2023-01-09T11:39:47;3.75;;;1.90;;
27424;SDS011;15244;49.088;11.886;2023-01-09T11:44:50;1.58;;;0.88;;
27424;SDS011;15244;49.088;11.886;2023-01-09T11:50:16;1.08;;;0.40;;
27424;SDS011;15244;49.088;11.886;2023-01-09T11:55:22;1.48;;;0.52;;
27424;SDS011;15244;49.088;11.886;2023-01-09T12:00:34;0.52;;;0.50;;
27424;SDS011;15244;49.088;11.886;2023-01-09T12:11:12;1.27;;;0.95;;
27424;SDS011;15244;49.088;11.886;2023-01-09T12:16:25;1.20;;;0.50;;
27424;SDS011;15244;49.088;11.886;2023-01-09T12:21:57;3.47;;;0.60;;
27424;SDS011;15244;49.088;11.886;2023-01-09T12:32:58;3.55;;;0.80;;
27424;SDS011;15244;49.088;11.886;2023-01-09T12:49:08;0.40;;;0.33;;
27424;SDS011;15244;49.088;11.886;2023-01-09T12:59:36;2.30;;;0.70;;
27424;SDS011;15244;49.088;11.886;2023-01-09T13:10:27;5.22;;;0.80;;
27424;SDS011;15244;49.088;11.886;2023-01-09T13:15:40;3.05;;;0.77;;
27424;SDS011;15244;49.088;11.886;2023-01-09T13:20:48;1.10;;;0.70;;
27424;SDS011;15244;49.088;11.886;2023-01-09T13:25:53;1.10;;;0.73;;
27424;SDS011;15244;49.088;11.886;2023-01-09T13:36:29;2.08;;;0.70;;
27424;SDS011;15244;49.088;11.886;2023-01-09T13:41:34;4.88;;;1.20;;
27424;SDS011;15244;49.088;11.886;2023-01-09T13:47:13;8.68;;;4.43;;
27424;SDS011;15244;49.088;11.886;2023-01-09T13:52:37;2.92;;;0.98;;
27424;SDS011;15244;49.088;11.886;2023-01-09T13:57:42;1.55;;;0.70;;
27424;SDS011;15244;49.088;11.886;2023-01-09T14:02:55;3.70;;;0.70;;
27424;SDS011;15244;49.088;11.886;2023-01-09T14:08:02;2.22;;;0.60;;
27424;SDS011;15244;49.088;11.886;2023-01-09T14:13:08;6.65;;;2.95;;
27424;SDS011;15244;49.088;11.886;2023-01-09T14:18:24;9.30;;;4.13;;
27424;SDS011;15244;49.088;11.886;2023-01-09T14:28:56;5.63;;;2.40;;
27424;SDS011;15244;49.088;11.886;2023-01-09T14:34:35;3.05;;;1.20;;
27424;SDS011;15244;49.088;11.886;2023-01-09T14:39:40;4.53;;;1.83;;
27424;SDS011;15244;49.088;11.886;2023-01-09T14:44:51;3.15;;;1.60;;
27424;SDS011;15244;49.088;11.886;2023-01-09T14:50:04;1.70;;;1.00;;
27424;SDS011;15244;49.088;11.886;2023-01-09T14:55:23;4.10;;;1.20;;
27424;SDS011;15244;49.088;11.886;2023-01-09T15:00:26;2.75;;;2.08;;
27424;SDS011;15244;49.088;11.886;2023-01-09T15:05:28;3.63;;;1.40;;
27424;SDS011;15244;49.088;11.886;2023-01-09T15:10:34;2.17;;;1.15;;
27424;SDS011;15244;49.088;11.886;2023-01-09T15:15:42;5.38;;;2.22;;
27424;SDS011;15244;49.088;11.886;2023-01-09T15:20:46;23.15;;;15.73;;
27424;SDS011;15244;49.088;11.886;2023-01-09T15:25:54;12.75;;;11.38;;
27424;SDS011;15244;49.088;11.886;2023-01-09T15:31:05;5.90;;;5.30;;
27424;SDS011;15244;49.088;11.886;2023-01-09T15:41:27;22.38;;;11.30;;
27424;SDS011;15244;49.088;11.886;2023-01-09T15:46:49;6.07;;;3.45;;
27424;SDS011;15244;49.088;11.886;2023-01-09T15:51:52;3.70;;;1.98;;
27424;SDS011;15244;49.088;11.886;2023-01-09T16:02:24;4.72;;;1.92;;
27424;SDS011;15244;49.088;11.886;2023-01-09T16:07:45;4.85;;;3.20;;
27424;SDS011;15244;49.088;11.886;2023-01-09T16:12:49;6.18;;;5.07;;
27424;SDS011;15244;49.088;11.886;2023-01-09T16:18:06;5.72;;;2.70;;
27424;SDS011;15244;49.088;11.886;2023-01-09T16:28:31;3.38;;;1.50;;
27424;SDS011;15244;49.088;11.886;2023-01-09T16:33:33;3.28;;;1.45;;
27424;SDS011;15244;49.088;11.886;2023-01-09T16:38:35;1.35;;;1.10;;
27424;SDS011;15244;49.088;11.886;2023-01-09T16:43:37;2.58;;;1.00;;
27424;SDS011;15244;49.088;11.886;2023-01-09T16:48:39;3.53;;;1.23;;
27424;SDS011;15244;49.088;11.886;2023-01-09T16:53:41;4.53;;;1.67;;
27424;SDS011;15244;49.088;11.886;2023-01-09T16:58:43;5.82;;;2.45;;
27424;SDS011;15244;49.088;11.886;2023-01-09T17:03:45;1.77;;;0.70;;
27424;SDS011;15244;49.088;11.886;2023-01-09T17:08:48;0.73;;;0.63;;
27424;SDS011;15244;49.088;11.886;2023-01-09T17:13:52;0.85;;;0.50;;
27424;SDS011;15244;49.088;11.886;2023-01-09T17:18:54;0.65;;;0.63;;
27424;SDS011;15244;49.088;11.886;2023-01-09T17:23:57;0.52;;;0.40;;
27424;SDS011;15244;49.088;11.886;2023-01-09T17:29:18;2.42;;;0.90;;
27424;SDS011;15244;49.088;11.886;2023-01-09T17:34:21;1.15;;;1.00;;
27424;SDS011;15244;49.088;11.886;2023-01-09T17:39:22;2.20;;;1.63;;
27424;SDS011;15244;49.088;11.886;2023-01-09T17:44:24;2.13;;;0.77;;
27424;SDS011;15244;49.088;11.886;2023-01-09T17:49:27;1.35;;;0.50;;
27424;SDS011;15244;49.088;11.886;2023-01-09T17:54:28;1.27;;;0.88;;
27424;SDS011;15244;49.088;11.886;2023-01-09T17:59:30;1.27;;;0.50;;
27424;SDS011;15244;49.088;11.886;2023-01-09T18:04:32;1.38;;;0.77;;
27424;SDS011;15244;49.088;11.886;2023-01-09T18:09:34;1.77;;;0.93;;
27424;SDS011;15244;49.088;11.886;2023-01-09T18:14:36;3.00;;;2.30;;
27424;SDS011;15244;49.088;11.886;2023-01-09T18:19:38;5.85;;;4.15;;
27424;SDS011;15244;49.088;11.886;2023-01-09T18:24:41;10.88;;;6.60;;
27424;SDS011;15244;49.088;11.886;2023-01-09T18:29:43;5.45;;;2.05;;
27424;SDS011;15244;49.088;11.886;2023-01-09T18:34:45;2.67;;;1.77;;
27424;SDS011;15244;49.088;11.886;2023-01-09T18:39:47;1.52;;;1.35;;
27424;SDS011;15244;49.088;11.886;2023-01-09T18:44:49;1.40;;;1.25;;
27424;SDS011;15244;49.088;11.886;2023-01-09T18:49:52;1.95;;;1.38;;
27424;SDS011;15244;49.088;11.886;2023-01-09T18:54:54;1.65;;;0.98;;
27424;SDS011;15244;49.088;11.886;2023-01-09T18:59:56;0.70;;;0.70;;
27424;SDS011;15244;49.088;11.886;2023-01-09T19:04:59;0.75;;;0.75;;
27424;SDS011;15244;49.088;11.886;2023-01-09T19:10:02;1.15;;;0.82;;
27424;SDS011;15244;49.088;11.886;2023-01-09T19:15:04;1.40;;;0.43;;
27424;SDS011;15244;49.088;11.886;2023-01-09T19:20:11;1.58;;;0.43;;
27424;SDS011;15244;49.088;11.886;2023-01-09T19:25:14;0.60;;;0.60;;
27424;SDS011;15244;49.088;11.886;2023-01-09T19:30:16;1.67;;;0.45;;
27424;SDS011;15244;49.088;11.886;2023-01-09T19:35:18;0.63;;;0.38;;
27424;SDS011;15244;49.088;11.886;2023-01-09T19:40:20;1.20;;;0.80;;
27424;SDS011;15244;49.088;11.886;2023-01-09T19:45:22;0.50;;;0.50;;
27424;SDS011;15244;49.088;11.886;2023-01-09T19:50:25;0.63;;;0.63;;
27424;SDS011;15244;49.088;11.886;2023-01-09T19:55:28;1.40;;;0.80;;
27424;SDS011;15244;49.088;11.886;2023-01-09T20:00:31;0.40;;;0.40;;
27424;SDS011;15244;49.088;11.886;2023-01-09T20:05:33;1.38;;;0.63;;
27424;SDS011;15244;49.088;11.886;2023-01-09T20:10:37;0.43;;;0.43;;
27424;SDS011;15244;49.088;11.886;2023-01-09T20:15:40;0.57;;;0.50;;
27424;SDS011;15244;49.088;11.886;2023-01-09T20:20:50;1.33;;;0.80;;
27424;SDS011;15244;49.088;11.886;2023-01-09T20:25:54;0.40;;;0.40;;
27424;SDS011;15244;49.088;11.886;2023-01-09T20:30:58;0.70;;;0.60;;
27424;SDS011;15244;49.088;11.886;2023-01-09T20:36:01;2.33;;;0.50;;
27424;SDS011;15244;49.088;11.886;2023-01-09T20:41:09;0.85;;;0.70;;
27424;SDS011;15244;49.088;11.886;2023-01-09T20:46:25;3.13;;;0.57;;
27424;SDS011;15244;49.088;11.886;2023-01-09T20:51:28;1.58;;;0.90;;
27424;SDS011;15244;49.088;11.886;2023-01-09T20:56:31;0.82;;;0.50;;
27424;SDS011;15244;49.088;11.886;2023-01-09T21:01:33;0.82;;;0.60;;
27424;SDS011;15244;49.088;11.886;2023-01-09T21:06:35;1.55;;;0.60;;
27424;SDS011;15244;49.088;11.886;2023-01-09T21:11:37;1.35;;;0.73;;
27424;SDS011;15244;49.088;11.886;2023-01-09T21:16:39;0.95;;;0.85;;
27424;SDS011;15244;49.088;11.886;2023-01-09T21:21:41;1.25;;;0.60;;
27424;SDS011;15244;49.088;11.886;2023-01-09T21:26:43;0.60;;;0.57;;
27424;SDS011;15244;49.088;11.886;2023-01-09T21:31:45;0.60;;;0.60;;
27424;SDS011;15244;49.088;11.886;2023-01-09T21:36:47;1.20;;;0.70;;
27424;SDS011;15244;49.088;11.886;2023-01-09T21:41:49;1.50;;;1.20;;
27424;SDS011;15244;49.088;11.886;2023-01-09T21:47:10;1.52;;;1.40;;
27424;SDS011;15244;49.088;11.886;2023-01-09T21:52:12;1.70;;;1.60;;
27424;SDS011;15244;49.088;11.886;2023-01-09T21:57:15;1.63;;;1.52;;
27424;SDS011;15244;49.088;11.886;2023-01-09T22:02:17;1.63;;;1.13;;
27424;SDS011;15244;49.088;11.886;2023-01-09T22:07:19;1.50;;;0.95;;
27424;SDS011;15244;49.088;11.886;2023-01-09T22:12:21;1.17;;;0.85;;
27424;SDS011;15244;49.088;11.886;2023-01-09T22:17:22;7.75;;;4.03;;
27424;SDS011;15244;49.088;11.886;2023-01-09T22:22:24;9.70;;;6.85;;
27424;SDS011;15244;49.088;11.886;2023-01-09T22:27:26;1.40;;;1.30;;
27424;SDS011;15244;49.088;11.886;2023-01-09T22:32:28;2.25;;;2.03;;
27424;SDS011;15244;49.088;11.886;2023-01-09T22:37:31;2.10;;;1.83;;
27424;SDS011;15244;49.088;11.886;2023-01-09T22:42:36;2.88;;;2.42;;
27424;SDS011;15244;49.088;11.886;2023-01-09T22:47:38;2.38;;;2.17;;
27424;SDS011;15244;49.088;11.886;2023-01-09T22:52:40;0.80;;;0.80;;
27424;SDS011;15244;49.088;11.886;2023-01-09T22:57:42;1.13;;;1.13;;
27424;SDS011;15244;49.088;11.886;2023-01-09T23:02:44;1.10;;;1.00;;
27424;SDS011;15244;49.088;11.886;2023-01-09T23:07:47;1.48;;;0.77;;
27424;SDS011;15244;49.088;11.886;2023-01-09T23:12:49;0.90;;;0.90;;
27424;SDS011;15244;49.088;11.886;2023-01-09T23:17:51;3.70;;;1.20;;
27424;SDS011;15244;49.088;11.886;2023-01-09T23:22:53;1.20;;;0.88;;
27424;SDS011;15244;49.088;11.886;2023-01-09T23:27:57;1.95;;;1.00;;
27424;SDS011;15244;49.088;11.886;2023-01-09T23:32:59;0.90;;;0.85;;
27424;SDS011;15244;49.088;11.886;2023-01-09T23:38:01;0.85;;;0.82;;
27424;SDS011;15244;49.088;11.886;2023-01-09T23:43:03;0.70;;;0.70;;
27424;SDS011;15244;49.088;11.886;2023-01-09T23:48:12;0.70;;;0.70;;
27424;SDS011;15244;49.088;11.886;2023-01-09T23:53:16;0.80;;;0.80;;
27424;SDS011;15244;49.088;11.886;2023-01-09T23:58:19;0.70;;;0.70;;
